Terminal Aerodrome Forecast
Issued by NWS

Home | Current Version | Previous Version | Graphics & Text | Print | Product List | Glossary On
Versions: 1 2 3 4 5 6 7 8 9 10 11 12 13 14 15 16 17 18 19
816
FTUS43 KBIS 160332 AAB
TAFDIK
TAF AMD
KDIK 160332Z 1604/1624 03006KT 6SM BR SCT015 BKN022
      TEMPO 1604/1605 3SM BR SCT005 OVC015
     FM160500 VRB04KT 2SM BR BKN010
     FM161200 30004KT 4SM BR BKN020
     FM161600 02005KT P6SM SCT200=

USA.gov is the U.S. government's official web portal to all federal, state and local government web resources and services.